createdAt,value
2023-05-14T00:00:48.533Z,11.07
2023-05-14T00:06:37.171Z,10.88
2023-05-14T00:12:24.547Z,10.10
2023-05-14T00:18:14.626Z,11.10
2023-05-14T00:24:01.757Z,11.63
2023-05-14T00:29:52.516Z,12.35
2023-05-14T00:35:41.428Z,10.52
2023-05-14T00:41:29.539Z,10.57
2023-05-14T00:47:16.732Z,13.43
2023-05-14T00:53:10.651Z,13.40
2023-05-14T01:04:45.624Z,12.57
2023-05-14T01:10:54.823Z,13.75
2023-05-14T01:16:46.187Z,13.45
2023-05-14T01:22:33.576Z,14.02
2023-05-14T01:28:28.280Z,13.88
2023-05-14T01:34:21.891Z,13.32
2023-05-14T01:40:10.877Z,13.65
2023-05-14T01:46:04.099Z,14.73
2023-05-14T01:51:54.126Z,13.10
2023-05-14T01:57:43.909Z,27.23
2023-05-14T02:03:31.837Z,12.45
2023-05-14T02:09:18.772Z,12.77
2023-05-14T02:15:06.357Z,13.93
2023-05-14T02:20:53.253Z,14.32
2023-05-14T02:26:42.189Z,12.18
2023-05-14T02:32:36.014Z,12.23
2023-05-14T02:38:27.538Z,11.55
2023-05-14T02:44:16.523Z,11.38
2023-05-14T02:50:06.276Z,10.48
2023-05-14T02:55:56.298Z,10.13
2023-05-14T03:01:46.449Z,10.70
2023-05-14T03:07:33.909Z,11.48
2023-05-14T03:13:20.951Z,10.85
2023-05-14T03:19:10.009Z,10.55
2023-05-14T03:24:59.129Z,10.02
2023-05-14T03:30:46.189Z,9.90
2023-05-14T03:36:34.253Z,10.73
2023-05-14T03:42:22.889Z,10.88
2023-05-14T03:48:13.041Z,11.68
2023-05-14T03:54:00.159Z,11.48
2023-05-14T03:59:47.830Z,10.70
2023-05-14T04:05:35.988Z,10.00
2023-05-14T04:11:26.765Z,10.07
2023-05-14T04:17:16.107Z,10.80
2023-05-14T04:23:02.967Z,10.90
2023-05-14T04:28:52.217Z,10.82
2023-05-14T04:34:42.634Z,9.80
2023-05-14T04:40:31.517Z,10.13
2023-05-14T04:46:18.403Z,11.13
2023-05-14T04:52:08.409Z,10.07
2023-05-14T04:57:55.732Z,10.63
2023-05-14T05:03:42.534Z,10.57
2023-05-14T05:09:30.369Z,10.70
2023-05-14T05:15:20.080Z,11.15
2023-05-14T05:21:10.553Z,11.35
2023-05-14T05:27:01.140Z,11.60
2023-05-14T05:32:50.710Z,11.40
2023-05-14T05:38:37.809Z,11.30
2023-05-14T05:44:24.972Z,11.00
2023-05-14T05:50:14.405Z,10.48
2023-05-14T05:56:04.338Z,12.70
2023-05-14T06:01:51.802Z,11.45
2023-05-14T06:07:39.558Z,11.65
2023-05-14T06:13:28.335Z,11.57
2023-05-14T06:19:18.399Z,12.23
2023-05-14T06:25:05.902Z,11.57
2023-05-14T06:30:54.758Z,10.63
2023-05-14T06:36:41.745Z,11.57
2023-05-14T06:42:28.594Z,12.30
2023-05-14T06:48:16.071Z,10.13
2023-05-14T06:54:03.109Z,12.65
2023-05-14T06:59:50.768Z,10.98
2023-05-14T07:05:40.872Z,12.05
2023-05-14T07:11:28.469Z,11.65
2023-05-14T07:17:17.559Z,11.60
2023-05-14T07:23:10.267Z,12.60
2023-05-14T07:29:03.717Z,11.18
2023-05-14T07:34:51.703Z,15.20
2023-05-14T07:40:39.789Z,10.32
2023-05-14T07:46:31.545Z,11.27
2023-05-14T07:52:25.928Z,11.93
2023-05-14T07:58:55.311Z,10.63
2023-05-14T08:04:42.759Z,10.48
2023-05-14T08:10:50.233Z,10.25
2023-05-14T08:16:37.396Z,9.95
2023-05-14T08:22:24.453Z,8.90
2023-05-14T08:28:11.542Z,8.85
2023-05-14T08:33:59.773Z,10.02
2023-05-14T08:39:46.938Z,9.05
2023-05-14T08:45:36.809Z,10.05
2023-05-14T08:51:26.940Z,9.35
2023-05-14T08:57:15.390Z,9.65
2023-05-14T09:03:38.100Z,9.98
2023-05-14T09:09:51.557Z,9.95
2023-05-14T09:15:44.561Z,10.35
2023-05-14T09:21:34.376Z,9.43
2023-05-14T09:27:27.838Z,10.50
2023-05-14T09:33:33.462Z,10.13
2023-05-14T09:39:27.576Z,11.30
2023-05-14T09:45:16.080Z,11.40
2023-05-14T09:51:04.599Z,10.57
2023-05-14T09:56:56.883Z,10.65
2023-05-14T10:02:51.484Z,10.15
2023-05-14T10:08:42.696Z,10.65
2023-05-14T10:14:39.979Z,10.43
2023-05-14T10:20:29.728Z,11.55
2023-05-14T10:26:18.198Z,11.07
2023-05-14T10:32:08.077Z,9.85
2023-05-14T10:37:55.673Z,9.68
2023-05-14T10:43:44.876Z,10.38
2023-05-14T10:49:43.054Z,10.48
2023-05-14T10:55:31.876Z,11.35
2023-05-14T11:01:20.140Z,11.20
2023-05-14T11:07:10.530Z,10.15
2023-05-14T11:12:58.818Z,11.88
2023-05-14T11:18:46.021Z,9.55
2023-05-14T11:24:35.087Z,9.32
2023-05-14T11:30:23.712Z,9.98
2023-05-14T11:42:03.930Z,8.80
2023-05-14T11:47:53.328Z,9.32
2023-05-14T11:53:45.683Z,9.35
2023-05-14T11:59:32.928Z,9.75
2023-05-14T12:05:23.779Z,10.52
2023-05-14T12:11:10.879Z,10.60
2023-05-14T12:17:04.519Z,10.15
2023-05-14T12:23:02.570Z,9.55
2023-05-14T12:29:01.151Z,8.98
2023-05-14T12:34:51.219Z,8.05
2023-05-14T12:40:50.209Z,10.35
2023-05-14T12:46:37.530Z,8.60
2023-05-14T12:52:39.254Z,7.93
2023-05-14T12:58:28.778Z,9.82
2023-05-14T13:04:19.097Z,8.38
2023-05-14T13:10:07.175Z,5.47
2023-05-14T13:15:54.062Z,6.05
2023-05-14T13:21:41.099Z,6.72
2023-05-14T13:27:39.692Z,6.55
2023-05-14T13:33:29.608Z,5.70
2023-05-14T13:39:31.766Z,6.47
2023-05-14T13:45:21.282Z,6.40
2023-05-14T13:51:28.167Z,5.20
2023-05-14T13:57:24.631Z,5.13
2023-05-14T14:03:11.885Z,5.47
2023-05-14T14:09:02.199Z,5.50
2023-05-14T14:14:50.353Z,3.70
2023-05-14T14:20:38.846Z,4.10
2023-05-14T14:26:28.061Z,3.83
2023-05-14T14:32:17.106Z,3.70
2023-05-14T14:38:04.023Z,4.32
2023-05-14T14:43:50.953Z,4.78
2023-05-14T14:49:42.860Z,4.97
2023-05-14T14:55:30.500Z,5.22
2023-05-14T15:01:19.014Z,4.75
2023-05-14T15:07:06.475Z,4.78
2023-05-14T15:12:53.414Z,5.50
2023-05-14T15:18:41.737Z,5.07
2023-05-14T15:24:28.686Z,5.88
2023-05-14T15:30:15.999Z,5.63
2023-05-14T15:36:08.381Z,9.57
2023-05-14T15:41:56.628Z,4.28
2023-05-14T15:47:45.236Z,4.63
2023-05-14T15:53:32.376Z,4.30
2023-05-14T15:59:20.028Z,3.90
2023-05-14T16:05:08.463Z,4.05
2023-05-14T16:10:56.026Z,3.78
2023-05-14T16:16:43.977Z,4.72
2023-05-14T16:22:32.867Z,4.65
2023-05-14T16:28:22.755Z,4.75
2023-05-14T16:34:10.404Z,4.25
2023-05-14T16:39:57.709Z,4.22
2023-05-14T16:45:45.591Z,4.13
2023-05-14T16:51:49.646Z,4.20
2023-05-14T16:57:49.923Z,6.28
2023-05-14T17:03:42.043Z,4.00
2023-05-14T17:09:31.825Z,4.05
2023-05-14T17:15:22.022Z,6.38
2023-05-14T17:21:10.788Z,3.50
2023-05-14T17:26:57.644Z,5.22
2023-05-14T17:32:44.602Z,3.30
2023-05-14T17:38:35.169Z,4.00
2023-05-14T17:44:22.102Z,4.13
2023-05-14T17:50:11.021Z,4.53
2023-05-14T17:55:58.873Z,3.80
2023-05-14T18:01:46.016Z,4.40
2023-05-14T18:07:34.121Z,4.05
2023-05-14T18:13:24.621Z,3.75
2023-05-14T18:19:11.931Z,3.53
2023-05-14T18:24:59.092Z,3.65
2023-05-14T18:30:52.324Z,3.70
2023-05-14T18:36:45.979Z,3.10
2023-05-14T18:42:33.756Z,10.02
2023-05-14T18:48:30.626Z,11.40
2023-05-14T18:54:18.041Z,13.63
2023-05-14T19:00:10.916Z,12.77
2023-05-14T19:05:59.431Z,12.85
2023-05-14T19:11:48.441Z,13.98
2023-05-14T19:17:35.602Z,13.13
2023-05-14T19:23:22.869Z,14.15
2023-05-14T19:29:14.177Z,12.98
2023-05-14T19:35:02.280Z,12.02
2023-05-14T19:40:51.055Z,17.17
2023-05-14T19:46:45.064Z,10.63
2023-05-14T19:52:34.419Z,11.32
2023-05-14T19:58:23.409Z,9.00
2023-05-14T20:04:10.736Z,7.47
2023-05-14T20:09:59.718Z,5.18
2023-05-14T20:15:48.653Z,11.38
2023-05-14T20:21:35.764Z,6.95
2023-05-14T20:27:26.057Z,4.20
2023-05-14T20:33:13.826Z,4.10
2023-05-14T20:39:03.982Z,3.28
2023-05-14T20:45:00.208Z,2.92
2023-05-14T20:50:52.077Z,2.47
2023-05-14T20:56:45.115Z,2.70
2023-05-14T21:02:35.438Z,2.10
2023-05-14T21:08:23.301Z,1.85
2023-05-14T21:14:10.341Z,2.42
2023-05-14T21:19:58.538Z,1.08
2023-05-14T21:25:45.620Z,1.02
2023-05-14T21:31:32.849Z,1.23
2023-05-14T21:37:22.001Z,1.00
2023-05-14T21:43:16.053Z,1.50
2023-05-14T21:49:05.463Z,1.13
2023-05-14T21:55:28.861Z,0.88
2023-05-14T22:01:17.158Z,1.05
2023-05-14T22:07:04.572Z,3.47
2023-05-14T22:12:52.942Z,1.10
2023-05-14T22:18:49.409Z,0.90
2023-05-14T22:24:42.099Z,1.30
2023-05-14T22:30:33.415Z,1.30
2023-05-14T22:36:24.197Z,1.00
2023-05-14T22:42:11.600Z,1.40
2023-05-14T22:47:58.959Z,1.05
2023-05-14T22:53:47.129Z,1.05
2023-05-14T22:59:39.610Z,1.20
2023-05-14T23:05:35.253Z,0.98
2023-05-14T23:11:28.425Z,1.05
2023-05-14T23:17:19.136Z,1.20
2023-05-14T23:23:07.960Z,1.35
2023-05-14T23:29:01.472Z,1.50
2023-05-14T23:34:48.323Z,1.60
2023-05-14T23:40:35.346Z,1.60
2023-05-14T23:46:22.418Z,1.67
2023-05-14T23:52:09.498Z,1.17
2023-05-14T23:57:59.597Z,1.50
